createdAt,value
2019-05-26T00:01:46.018Z,4.93
2019-05-26T00:04:16.399Z,5.90
2019-05-26T00:06:46.726Z,5.13
2019-05-26T00:09:17.085Z,6.27
2019-05-26T00:11:47.406Z,5.03
2019-05-26T00:14:17.847Z,5.30
2019-05-26T00:16:48.158Z,7.33
2019-05-26T00:19:18.519Z,6.13
2019-05-26T00:21:48.831Z,5.77
2019-05-26T00:24:20.166Z,5.87
2019-05-26T00:26:50.562Z,5.93
2019-05-26T00:29:20.918Z,6.17
2019-05-26T00:31:51.304Z,6.00
2019-05-26T00:34:21.729Z,6.17
2019-05-26T00:36:52.160Z,6.57
2019-05-26T00:39:22.540Z,5.80
2019-05-26T00:41:52.920Z,6.27
2019-05-26T00:44:23.341Z,5.97
2019-05-26T00:46:53.758Z,5.70
2019-05-26T00:49:24.113Z,9.00
2019-05-26T00:51:54.436Z,6.50
2019-05-26T00:54:24.937Z,6.50
2019-05-26T00:56:55.249Z,6.20
2019-05-26T00:59:25.618Z,6.50
2019-05-26T01:01:55.992Z,6.40
2019-05-26T01:04:26.344Z,6.47
2019-05-26T01:06:56.667Z,6.10
2019-05-26T01:09:27.049Z,6.80
2019-05-26T01:11:57.375Z,7.20
2019-05-26T01:14:27.824Z,7.00
2019-05-26T01:16:58.148Z,6.87
2019-05-26T01:19:28.667Z,7.20
2019-05-26T01:22:00.082Z,8.83
2019-05-26T01:24:30.445Z,7.40
2019-05-26T01:27:01.662Z,7.00
2019-05-26T01:29:32.016Z,7.17
2019-05-26T01:32:02.349Z,8.20
2019-05-26T01:34:32.718Z,9.47
2019-05-26T01:37:03.302Z,7.80
2019-05-26T01:39:33.619Z,7.63
2019-05-26T01:42:03.981Z,7.50
2019-05-26T01:44:34.523Z,7.27
2019-05-26T01:47:04.927Z,7.70
2019-05-26T01:49:35.463Z,8.13
2019-05-26T01:52:06.028Z,7.77
2019-05-26T01:54:40.440Z,7.90
2019-05-26T01:57:08.571Z,8.23
2019-05-26T01:59:39.150Z,8.30
2019-05-26T02:02:15.791Z,7.40
2019-05-26T02:04:46.263Z,7.93
2019-05-26T02:07:16.588Z,8.80
2019-05-26T02:09:46.993Z,8.57
2019-05-26T02:12:17.372Z,8.03
2019-05-26T02:14:47.750Z,8.37
2019-05-26T02:17:18.203Z,7.63
2019-05-26T02:19:48.602Z,8.27
2019-05-26T02:22:18.968Z,9.00
2019-05-26T02:24:49.287Z,9.13
2019-05-26T02:27:19.683Z,8.20
2019-05-26T02:29:50.122Z,10.90
2019-05-26T02:32:20.499Z,8.33
2019-05-26T02:34:50.808Z,8.73
2019-05-26T02:37:21.167Z,9.17
2019-05-26T02:39:51.493Z,8.20
2019-05-26T02:42:21.899Z,9.13
2019-05-26T02:44:52.323Z,8.93
2019-05-26T02:47:22.673Z,8.87
2019-05-26T02:49:53.019Z,8.80
2019-05-26T02:52:23.454Z,9.87
2019-05-26T02:54:53.897Z,9.40
2019-05-26T02:57:24.372Z,10.03
2019-05-26T02:59:54.737Z,11.03
2019-05-26T03:02:25.119Z,9.23
2019-05-26T03:04:55.456Z,9.43
2019-05-26T03:07:27.283Z,10.03
2019-05-26T03:09:58.212Z,10.30
2019-05-26T03:12:31.259Z,10.83
2019-05-26T03:15:03.427Z,10.83
2019-05-26T03:17:35.371Z,11.12
2019-05-26T03:20:06.501Z,12.20
2019-05-26T03:22:40.307Z,11.67
2019-05-26T03:25:12.107Z,11.07
2019-05-26T03:27:42.505Z,12.33
2019-05-26T03:30:12.956Z,11.70
2019-05-26T03:32:44.394Z,11.13
2019-05-26T03:35:14.843Z,12.87
2019-05-26T03:37:45.189Z,11.23
2019-05-26T03:40:15.628Z,12.10
2019-05-26T03:42:46.004Z,12.27
2019-05-26T03:45:25.569Z,12.10
2019-05-26T03:47:55.947Z,12.20
2019-05-26T03:50:26.267Z,11.60
2019-05-26T03:52:56.623Z,12.40
2019-05-26T03:55:26.864Z,12.70
2019-05-26T03:57:57.241Z,12.37
2019-05-26T04:00:27.581Z,13.20
2019-05-26T04:02:58.490Z,12.37
2019-05-26T04:05:28.814Z,13.27
2019-05-26T04:08:03.966Z,12.50
2019-05-26T04:10:31.179Z,11.53
2019-05-26T04:13:01.559Z,11.57
2019-05-26T04:15:31.890Z,11.73
2019-05-26T04:18:02.250Z,11.63
2019-05-26T04:20:35.367Z,11.38
2019-05-26T04:23:05.741Z,10.83
2019-05-26T04:25:36.098Z,9.87
2019-05-26T04:28:06.463Z,10.63
2019-05-26T04:30:37.861Z,10.40
2019-05-26T04:33:08.219Z,9.70
2019-05-26T04:35:38.706Z,10.93
2019-05-26T04:38:09.117Z,9.97
2019-05-26T04:40:39.509Z,10.27
2019-05-26T04:43:14.457Z,10.13
2019-05-26T04:45:41.924Z,9.80
2019-05-26T04:48:12.314Z,10.40
2019-05-26T04:50:42.745Z,10.07
2019-05-26T04:53:13.206Z,10.20
2019-05-26T04:55:43.533Z,10.10
2019-05-26T04:58:13.992Z,11.37
2019-05-26T05:00:44.388Z,9.67
2019-05-26T05:03:14.745Z,10.60
2019-05-26T05:05:45.074Z,9.17
2019-05-26T05:08:15.518Z,9.23
2019-05-26T05:10:45.844Z,9.20
2019-05-26T05:13:16.211Z,8.73
2019-05-26T05:15:46.546Z,9.30
2019-05-26T05:18:16.904Z,8.67
2019-05-26T05:20:47.215Z,8.87
2019-05-26T05:23:17.574Z,9.17
2019-05-26T05:25:48.012Z,8.53
2019-05-26T05:28:18.399Z,8.43
2019-05-26T05:30:48.723Z,8.63
2019-05-26T05:33:19.081Z,7.93
2019-05-26T05:35:49.451Z,8.40
2019-05-26T05:38:19.842Z,8.43
2019-05-26T05:40:59.335Z,7.80
2019-05-26T05:43:22.211Z,7.40
2019-05-26T05:45:54.105Z,7.00
2019-05-26T05:48:24.463Z,7.07
2019-05-26T05:50:54.817Z,7.40
2019-05-26T05:53:25.181Z,7.37
2019-05-26T05:55:55.494Z,6.93
2019-05-26T05:58:25.861Z,6.60
2019-05-26T06:00:56.204Z,6.60
2019-05-26T06:03:26.572Z,6.70
2019-05-26T06:05:56.906Z,7.10
2019-05-26T06:08:27.266Z,7.00
2019-05-26T06:10:57.614Z,6.70
2019-05-26T06:13:27.920Z,6.90
2019-05-26T06:15:58.440Z,7.57
2019-05-26T06:18:28.771Z,7.37
2019-05-26T06:20:59.131Z,7.33
2019-05-26T06:23:29.443Z,7.53
2019-05-26T06:25:59.816Z,8.00
2019-05-26T06:28:30.136Z,7.20
2019-05-26T06:31:00.628Z,7.33
2019-05-26T06:33:30.995Z,8.03
2019-05-26T06:36:01.386Z,7.40
2019-05-26T06:38:31.783Z,7.67
2019-05-26T06:41:02.161Z,7.40
2019-05-26T06:43:32.487Z,7.73
2019-05-26T06:46:02.978Z,7.43
2019-05-26T06:48:33.324Z,7.20
2019-05-26T06:51:03.727Z,7.53
2019-05-26T06:53:37.268Z,6.63
2019-05-26T06:56:06.246Z,6.93
2019-05-26T06:58:36.644Z,6.93
2019-05-26T07:01:07.069Z,6.70
2019-05-26T07:03:37.455Z,6.63
2019-05-26T07:06:07.834Z,7.10
2019-05-26T07:08:38.158Z,6.30
2019-05-26T07:11:08.510Z,6.50
2019-05-26T07:13:38.844Z,6.33
2019-05-26T07:16:09.282Z,6.10
2019-05-26T07:18:39.615Z,6.37
2019-05-26T07:21:09.991Z,6.20
2019-05-26T07:23:40.321Z,5.77
2019-05-26T07:26:10.753Z,5.90
2019-05-26T07:28:41.090Z,5.37
2019-05-26T07:31:11.879Z,5.10
2019-05-26T07:33:42.175Z,7.63
2019-05-26T07:36:12.535Z,5.30
2019-05-26T07:38:42.862Z,5.17
2019-05-26T07:41:13.351Z,4.70
2019-05-26T07:43:43.700Z,5.10
2019-05-26T07:46:14.098Z,5.90
2019-05-26T07:48:44.426Z,7.00
2019-05-26T07:51:14.795Z,5.30
2019-05-26T07:53:45.215Z,5.60
2019-05-26T07:56:15.665Z,6.00
2019-05-26T07:58:46.000Z,5.10
2019-05-26T08:01:16.369Z,5.17
2019-05-26T08:03:46.685Z,5.43
2019-05-26T08:06:17.119Z,5.20
2019-05-26T08:08:47.423Z,5.20
2019-05-26T08:11:17.809Z,5.00
2019-05-26T08:13:48.298Z,5.00
2019-05-26T08:16:18.734Z,5.10
2019-05-26T08:18:49.063Z,5.47
2019-05-26T08:21:19.428Z,5.97
2019-05-26T08:23:49.744Z,5.70
2019-05-26T08:26:20.147Z,6.20
2019-05-26T08:28:50.952Z,6.03
2019-05-26T08:31:21.346Z,8.13
2019-05-26T08:33:51.634Z,10.00
2019-05-26T08:36:22.033Z,6.90
2019-05-26T08:38:52.362Z,5.80
2019-05-26T08:41:22.726Z,7.23
2019-05-26T08:43:53.131Z,7.67
2019-05-26T08:46:23.617Z,8.03
2019-05-26T08:48:53.975Z,7.60
2019-05-26T08:51:24.301Z,6.83
2019-05-26T08:53:54.663Z,6.43
2019-05-26T08:56:24.989Z,7.17
2019-05-26T08:58:55.413Z,7.33
2019-05-26T09:01:25.702Z,8.73
2019-05-26T09:03:56.063Z,7.67
2019-05-26T09:06:26.402Z,7.53
2019-05-26T09:08:56.791Z,7.67
2019-05-26T09:11:27.105Z,8.70
2019-05-26T09:13:57.483Z,7.80
2019-05-26T09:16:27.833Z,8.00
2019-05-26T09:18:58.324Z,7.60
2019-05-26T09:21:28.647Z,7.83
2019-05-26T09:23:59.026Z,8.50
2019-05-26T09:26:30.325Z,7.50
2019-05-26T09:29:00.682Z,7.63
2019-05-26T09:31:34.030Z,7.80
2019-05-26T09:34:02.993Z,7.07
2019-05-26T09:36:33.315Z,7.60
2019-05-26T09:39:05.766Z,6.90
2019-05-26T09:41:36.194Z,7.37
2019-05-26T09:44:06.568Z,6.77
2019-05-26T09:46:36.980Z,8.37
2019-05-26T09:49:07.408Z,9.27
2019-05-26T09:51:37.883Z,9.23
2019-05-26T09:54:08.255Z,9.57
2019-05-26T09:56:38.576Z,8.30
2019-05-26T09:59:08.991Z,8.93
2019-05-26T10:01:39.395Z,9.17
2019-05-26T10:04:09.763Z,6.60
2019-05-26T10:06:40.095Z,7.63
2019-05-26T10:09:10.470Z,7.73
2019-05-26T10:11:40.891Z,9.33
2019-05-26T10:14:11.576Z,8.80
2019-05-26T10:16:41.914Z,9.63
2019-05-26T10:19:12.337Z,10.40
2019-05-26T10:21:42.681Z,10.97
2019-05-26T10:24:14.134Z,9.37
2019-05-26T10:26:44.463Z,7.57
2019-05-26T10:29:14.898Z,9.10
2019-05-26T10:31:45.159Z,8.33
2019-05-26T10:34:15.532Z,7.80
2019-05-26T10:36:45.861Z,8.37
2019-05-26T10:39:17.300Z,7.17
2019-05-26T10:41:47.615Z,6.10
2019-05-26T10:44:18.016Z,5.90
2019-05-26T10:46:48.342Z,5.10
2019-05-26T10:49:18.894Z,6.23
2019-05-26T10:51:49.366Z,6.70
2019-05-26T10:54:19.732Z,6.60
2019-05-26T10:56:50.066Z,8.57
2019-05-26T10:59:20.435Z,6.50
2019-05-26T11:01:50.759Z,6.20
2019-05-26T11:04:21.131Z,6.50
2019-05-26T11:06:51.464Z,5.77
2019-05-26T11:09:21.828Z,5.30
2019-05-26T11:11:52.141Z,5.80
2019-05-26T11:14:22.504Z,4.90
2019-05-26T11:16:52.839Z,4.50
2019-05-26T11:19:23.224Z,4.83
2019-05-26T11:21:53.579Z,5.57
2019-05-26T11:24:24.002Z,4.10
2019-05-26T11:26:54.367Z,4.87
2019-05-26T11:29:24.725Z,4.20
2019-05-26T11:31:55.055Z,4.33
2019-05-26T11:34:25.663Z,4.00
2019-05-26T11:36:56.010Z,4.65
2019-05-26T11:39:26.438Z,4.00
2019-05-26T11:42:10.547Z,5.60
2019-05-26T11:44:28.943Z,4.53
2019-05-26T11:46:59.365Z,5.40
2019-05-26T11:49:29.678Z,4.40
2019-05-26T11:51:59.998Z,3.72
2019-05-26T11:54:33.702Z,4.95
2019-05-26T11:57:02.400Z,4.10
2019-05-26T11:59:32.799Z,3.87
2019-05-26T12:02:03.170Z,4.45
2019-05-26T12:04:33.484Z,3.90
2019-05-26T12:07:04.602Z,3.52
2019-05-26T12:09:34.976Z,5.00
2019-05-26T12:12:05.411Z,4.00
2019-05-26T12:14:35.812Z,4.22
2019-05-26T12:17:06.135Z,4.20
2019-05-26T12:19:36.504Z,3.70
2019-05-26T12:22:06.920Z,3.30
2019-05-26T12:24:37.250Z,3.22
2019-05-26T12:27:07.651Z,3.50
2019-05-26T12:29:38.133Z,3.73
2019-05-26T12:32:08.499Z,5.37
2019-05-26T12:34:39.770Z,4.03
2019-05-26T12:37:10.195Z,4.95
2019-05-26T12:39:40.523Z,3.52
2019-05-26T12:42:10.901Z,3.80
2019-05-26T12:44:49.386Z,4.70
2019-05-26T12:47:13.302Z,4.05
2019-05-26T12:49:43.722Z,4.40
2019-05-26T12:52:14.094Z,3.87
2019-05-26T12:54:44.425Z,5.12
2019-05-26T12:57:14.810Z,2.92
2019-05-26T12:59:45.157Z,3.00
2019-05-26T13:02:15.620Z,3.12
2019-05-26T13:04:46.009Z,3.40
2019-05-26T13:07:16.376Z,3.58
2019-05-26T13:09:46.698Z,3.30
2019-05-26T13:12:17.260Z,4.65
2019-05-26T13:14:47.586Z,3.90
2019-05-26T13:17:18.140Z,5.20
2019-05-26T13:19:48.506Z,4.50
2019-05-26T13:22:18.976Z,4.12
2019-05-26T13:24:49.311Z,4.45
2019-05-26T13:27:19.694Z,3.22
2019-05-26T13:29:50.163Z,4.87
2019-05-26T13:32:20.605Z,4.30
2019-05-26T13:34:51.044Z,4.50
2019-05-26T13:37:21.369Z,3.65
2019-05-26T13:39:51.766Z,3.35
2019-05-26T13:42:22.093Z,3.40
2019-05-26T13:44:52.491Z,3.98
2019-05-26T13:47:26.265Z,3.92
2019-05-26T13:49:56.006Z,3.25
2019-05-26T13:52:26.371Z,3.10
2019-05-26T13:54:56.739Z,3.62
2019-05-26T13:57:27.169Z,3.05
2019-05-26T13:59:57.576Z,2.83
2019-05-26T14:02:27.966Z,2.92
2019-05-26T14:04:58.375Z,3.75
2019-05-26T14:07:28.703Z,3.40
2019-05-26T14:09:59.079Z,3.12
2019-05-26T14:12:29.536Z,3.00
2019-05-26T14:14:59.859Z,3.00
2019-05-26T14:17:32.273Z,3.10
2019-05-26T14:20:04.668Z,3.20
2019-05-26T14:22:35.026Z,3.75
2019-05-26T14:25:05.507Z,2.70
2019-05-26T14:27:35.893Z,2.70
2019-05-26T14:30:08.289Z,2.87
2019-05-26T14:32:38.631Z,3.27
2019-05-26T14:35:09.139Z,3.27
2019-05-26T14:37:39.465Z,2.55
2019-05-26T14:40:09.956Z,3.35
2019-05-26T14:42:40.459Z,2.92
2019-05-26T14:45:11.143Z,2.90
2019-05-26T14:47:41.570Z,2.90
2019-05-26T14:50:13.607Z,3.08
2019-05-26T14:52:44.023Z,3.05
2019-05-26T14:55:15.192Z,2.83
2019-05-26T14:57:45.711Z,2.92
2019-05-26T15:00:16.607Z,3.12
2019-05-26T15:02:46.952Z,2.83
2019-05-26T15:05:18.407Z,2.83
2019-05-26T15:07:48.727Z,2.70
2019-05-26T15:10:22.516Z,2.80
2019-05-26T15:12:52.611Z,3.37
2019-05-26T15:15:24.050Z,2.65
2019-05-26T15:17:54.398Z,3.35
2019-05-26T15:20:24.771Z,2.65
2019-05-26T15:22:55.080Z,3.60
2019-05-26T15:25:25.472Z,3.40
2019-05-26T15:27:55.846Z,3.42
2019-05-26T15:30:26.232Z,3.20
2019-05-26T15:32:56.651Z,3.02
2019-05-26T15:35:27.027Z,3.08
2019-05-26T15:37:57.363Z,3.20
2019-05-26T15:40:27.854Z,2.67
2019-05-26T15:42:58.180Z,2.80
2019-05-26T15:45:28.636Z,3.33
2019-05-26T15:47:58.968Z,3.22
2019-05-26T15:50:29.330Z,4.28
2019-05-26T15:52:59.689Z,2.90
2019-05-26T15:55:30.118Z,2.85
2019-05-26T15:58:00.533Z,2.80
2019-05-26T16:00:30.895Z,2.75
2019-05-26T16:03:01.216Z,2.72
2019-05-26T16:05:31.568Z,2.67
2019-05-26T16:08:01.900Z,3.10
2019-05-26T16:10:32.331Z,3.72
2019-05-26T16:13:02.670Z,3.12
2019-05-26T16:15:33.055Z,2.92
2019-05-26T16:18:03.406Z,3.17
2019-05-26T16:20:33.809Z,4.10
2019-05-26T16:23:04.119Z,2.98
2019-05-26T16:25:34.477Z,2.70
2019-05-26T16:28:04.825Z,3.10
2019-05-26T16:30:35.198Z,2.70
2019-05-26T16:33:05.853Z,3.60
2019-05-26T16:35:36.233Z,3.60
2019-05-26T16:38:06.541Z,3.47
2019-05-26T16:40:36.900Z,3.30
2019-05-26T16:43:07.222Z,4.50
2019-05-26T16:45:37.609Z,3.40
2019-05-26T16:48:07.964Z,3.40
2019-05-26T16:50:38.342Z,2.73
2019-05-26T16:53:08.719Z,2.57
2019-05-26T16:55:39.042Z,2.50
2019-05-26T16:58:09.455Z,2.57
2019-05-26T17:00:39.817Z,3.33
2019-05-26T17:03:10.223Z,2.30
2019-05-26T17:05:40.694Z,2.40
2019-05-26T17:08:11.070Z,2.05
2019-05-26T17:10:42.227Z,2.17
2019-05-26T17:13:12.552Z,2.05
2019-05-26T17:15:42.961Z,2.30
2019-05-26T17:18:13.278Z,2.50
2019-05-26T17:20:43.659Z,2.37
2019-05-26T17:23:14.015Z,3.25
2019-05-26T17:25:44.433Z,2.98
2019-05-26T17:28:14.762Z,2.22
2019-05-26T17:30:45.140Z,2.70
2019-05-26T17:33:16.475Z,2.37
2019-05-26T17:35:46.836Z,2.37
2019-05-26T17:38:17.218Z,2.50
2019-05-26T17:40:47.611Z,2.50
2019-05-26T17:43:18.018Z,2.33
2019-05-26T17:45:49.479Z,2.27
2019-05-26T17:48:19.828Z,2.23
2019-05-26T17:50:52.499Z,2.20
2019-05-26T17:53:32.763Z,2.77
2019-05-26T17:56:03.111Z,3.83
2019-05-26T17:58:33.487Z,2.50
2019-05-26T18:01:03.960Z,2.30
2019-05-26T18:03:34.306Z,2.10
2019-05-26T18:06:04.829Z,2.40
2019-05-26T18:08:36.581Z,2.10
2019-05-26T18:11:07.232Z,2.00
2019-05-26T18:13:37.567Z,2.80
2019-05-26T18:16:07.969Z,1.80
2019-05-26T18:18:38.315Z,2.17
2019-05-26T18:21:08.701Z,2.08
2019-05-26T18:23:39.053Z,1.90
2019-05-26T18:26:09.462Z,1.90
2019-05-26T18:28:40.469Z,2.60
2019-05-26T18:31:10.875Z,2.93
2019-05-26T18:33:41.413Z,2.67
2019-05-26T18:36:11.940Z,2.10
2019-05-26T18:38:42.286Z,2.90
2019-05-26T18:41:12.778Z,2.90
2019-05-26T18:43:43.312Z,6.40
2019-05-26T18:46:13.885Z,2.60
2019-05-26T18:48:45.287Z,2.30
2019-05-26T18:51:15.731Z,3.90
2019-05-26T18:53:46.128Z,2.40
2019-05-26T18:56:17.493Z,2.20
2019-05-26T18:58:47.911Z,2.07
2019-05-26T19:01:18.391Z,2.30
2019-05-26T19:03:48.749Z,2.10
2019-05-26T19:06:19.199Z,2.50
2019-05-26T19:08:49.562Z,2.40
2019-05-26T19:11:20.917Z,2.50
2019-05-26T19:13:51.359Z,2.37
2019-05-26T19:16:21.753Z,3.10
2019-05-26T19:18:52.197Z,2.40
2019-05-26T19:21:22.653Z,2.30
2019-05-26T19:23:52.956Z,2.40
2019-05-26T19:26:23.362Z,2.20
2019-05-26T19:28:53.778Z,2.30
2019-05-26T19:31:24.342Z,3.37
2019-05-26T19:33:55.177Z,2.10
2019-05-26T19:36:25.741Z,2.40
2019-05-26T19:38:57.095Z,2.50
2019-05-26T19:41:27.521Z,2.60
2019-05-26T19:43:58.069Z,2.43
2019-05-26T19:46:28.380Z,2.77
2019-05-26T19:48:58.817Z,2.70
2019-05-26T19:51:30.219Z,2.73
2019-05-26T19:54:00.619Z,2.77
2019-05-26T19:56:31.032Z,3.97
2019-05-26T19:59:01.597Z,3.17
2019-05-26T20:01:32.024Z,2.73
2019-05-26T20:04:02.476Z,3.00
2019-05-26T20:06:32.836Z,2.80
2019-05-26T20:09:06.060Z,3.20
2019-05-26T20:11:36.657Z,4.50
2019-05-26T20:14:07.206Z,8.87
2019-05-26T20:16:37.607Z,4.67
2019-05-26T20:19:08.001Z,4.17
2019-05-26T20:21:38.315Z,7.40
2019-05-26T20:24:08.686Z,3.90
2019-05-26T20:26:39.044Z,4.00
2019-05-26T20:29:09.447Z,4.80
2019-05-26T20:31:40.003Z,3.00
2019-05-26T20:34:10.497Z,2.80
2019-05-26T20:36:40.891Z,3.03
2019-05-26T20:39:11.498Z,3.97
2019-05-26T20:41:41.970Z,3.10
2019-05-26T20:44:12.401Z,3.10
2019-05-26T20:46:42.894Z,3.43
2019-05-26T20:49:14.543Z,3.33
2019-05-26T20:51:44.872Z,3.30
2019-05-26T20:54:15.304Z,2.97
2019-05-26T20:56:45.709Z,3.30
2019-05-26T20:59:16.228Z,4.43
2019-05-26T21:01:46.591Z,3.30
2019-05-26T21:04:16.991Z,3.40
2019-05-26T21:06:47.462Z,3.23
2019-05-26T21:09:17.968Z,3.00
2019-05-26T21:11:48.383Z,7.30
2019-05-26T21:14:18.828Z,12.53
2019-05-26T21:16:49.315Z,17.17
2019-05-26T21:19:19.680Z,13.53
2019-05-26T21:21:50.060Z,12.50
2019-05-26T21:24:20.464Z,4.10
2019-05-26T21:26:51.070Z,3.53
2019-05-26T21:29:21.710Z,3.25
2019-05-26T21:31:52.083Z,3.37
2019-05-26T21:34:22.498Z,3.80
2019-05-26T21:36:52.886Z,3.70
2019-05-26T21:39:23.209Z,3.87
2019-05-26T21:41:53.614Z,3.57
2019-05-26T21:44:23.973Z,4.13
2019-05-26T21:46:54.309Z,4.20
2019-05-26T21:49:24.671Z,4.27
2019-05-26T21:51:55.016Z,4.17
2019-05-26T21:54:25.426Z,3.70
2019-05-26T21:56:55.802Z,5.30
2019-05-26T21:59:26.343Z,4.10
2019-05-26T22:01:56.885Z,4.53
2019-05-26T22:04:27.483Z,4.60
2019-05-26T22:06:57.902Z,4.93
2019-05-26T22:09:28.409Z,4.70
2019-05-26T22:11:58.860Z,4.87
2019-05-26T22:14:29.385Z,5.00
2019-05-26T22:16:59.779Z,5.30
2019-05-26T22:19:30.297Z,7.33
2019-05-26T22:22:00.614Z,5.37
2019-05-26T22:24:31.099Z,6.00
2019-05-26T22:27:01.432Z,6.90
2019-05-26T22:29:35.042Z,5.50
2019-05-26T22:32:07.477Z,6.20
2019-05-26T22:34:38.226Z,6.97
2019-05-26T22:37:08.851Z,6.20
2019-05-26T22:39:39.272Z,5.80
2019-05-26T22:42:09.588Z,7.53
2019-05-26T22:44:40.091Z,6.03
2019-05-26T22:47:10.404Z,6.10
2019-05-26T22:49:40.800Z,6.30
2019-05-26T22:52:11.160Z,6.00
2019-05-26T22:54:41.658Z,7.63
2019-05-26T22:57:12.044Z,6.77
2019-05-26T22:59:42.334Z,6.67
2019-05-26T23:02:12.715Z,6.30
2019-05-26T23:04:43.136Z,5.70
2019-05-26T23:07:13.540Z,6.37
2019-05-26T23:09:43.871Z,6.90
2019-05-26T23:12:14.305Z,6.97
2019-05-26T23:14:44.627Z,7.17
2019-05-26T23:17:15.008Z,7.53
2019-05-26T23:19:45.322Z,7.50
2019-05-26T23:22:15.699Z,7.40
2019-05-26T23:24:46.115Z,7.50
2019-05-26T23:27:16.570Z,7.70
2019-05-26T23:29:46.924Z,7.20
2019-05-26T23:32:17.301Z,7.17
2019-05-26T23:34:47.687Z,7.07
2019-05-26T23:37:18.054Z,6.80
2019-05-26T23:39:48.375Z,7.10
2019-05-26T23:42:18.740Z,7.03
2019-05-26T23:44:49.072Z,7.00
2019-05-26T23:47:20.358Z,6.87
2019-05-26T23:49:50.708Z,6.67
2019-05-26T23:52:21.422Z,6.20
2019-05-26T23:54:51.759Z,6.67
2019-05-26T23:57:22.237Z,6.60
2019-05-26T23:59:52.590Z,6.20
